sensor_id;sensor_type;location;lat;lon;timestamp;temperature;humidity
44215;DHT22;29884;47.450;19.124;2023-06-10T00:00:13;17.90;99.90
44215;DHT22;29884;47.450;19.124;2023-06-10T00:02:40;17.80;99.90
44215;DHT22;29884;47.450;19.124;2023-06-10T00:05:07;17.90;99.90
44215;DHT22;29884;47.450;19.124;2023-06-10T00:07:34;17.80;99.90
44215;DHT22;29884;47.450;19.124;2023-06-10T00:10:04;17.80;99.90
44215;DHT22;29884;47.450;19.124;2023-06-10T00:12:31;17.70;99.90
44215;DHT22;29884;47.450;19.124;2023-06-10T00:15:03;17.70;99.90
44215;DHT22;29884;47.450;19.124;2023-06-10T00:17:30;17.70;99.90
44215;DHT22;29884;47.450;19.124;2023-06-10T00:19:56;17.70;99.90
44215;DHT22;29884;47.450;19.124;2023-06-10T00:22:23;17.70;99.90
44215;DHT22;29884;47.450;19.124;2023-06-10T00:24:55;17.70;99.90
44215;DHT22;29884;47.450;19.124;2023-06-10T00:27:22;17.70;99.90
44215;DHT22;29884;47.450;19.124;2023-06-10T00:29:47;17.70;99.90
44215;DHT22;29884;47.450;19.124;2023-06-10T00:32:13;17.70;99.90
44215;DHT22;29884;47.450;19.124;2023-06-10T00:34:39;17.70;99.90
44215;DHT22;29884;47.450;19.124;2023-06-10T00:37:05;17.70;99.90
44215;DHT22;29884;47.450;19.124;2023-06-10T00:39:30;17.60;99.90
44215;DHT22;29884;47.450;19.124;2023-06-10T00:41:56;17.70;99.90
44215;DHT22;29884;47.450;19.124;2023-06-10T00:44:22;17.60;99.90
44215;DHT22;29884;47.450;19.124;2023-06-10T00:46:48;17.60;99.90
44215;DHT22;29884;47.450;19.124;2023-06-10T00:49:16;17.60;99.90
44215;DHT22;29884;47.450;19.124;2023-06-10T00:51:42;17.60;99.90
44215;DHT22;29884;47.450;19.124;2023-06-10T00:54:08;17.60;99.90
44215;DHT22;29884;47.450;19.124;2023-06-10T00:56:35;17.60;99.90
44215;DHT22;29884;47.450;19.124;2023-06-10T00:59:00;17.60;99.90
44215;DHT22;29884;47.450;19.124;2023-06-10T01:01:26;17.60;99.90
44215;DHT22;29884;47.450;19.124;2023-06-10T01:03:52;17.60;99.90
44215;DHT22;29884;47.450;19.124;2023-06-10T01:12:23;17.50;99.90
44215;DHT22;29884;47.450;19.124;2023-06-10T01:14:51;17.40;99.90
44215;DHT22;29884;47.450;19.124;2023-06-10T01:17:18;17.40;99.90
44215;DHT22;29884;47.450;19.124;2023-06-10T01:19:44;17.40;99.90
44215;DHT22;29884;47.450;19.124;2023-06-10T01:22:10;17.30;99.90
44215;DHT22;29884;47.450;19.124;2023-06-10T01:24:37;17.30;99.90
44215;DHT22;29884;47.450;19.124;2023-06-10T01:27:11;17.40;99.90
44215;DHT22;29884;47.450;19.124;2023-06-10T01:29:43;17.40;99.90
44215;DHT22;29884;47.450;19.124;2023-06-10T01:32:26;17.30;99.90
44215;DHT22;29884;47.450;19.124;2023-06-10T01:34:56;17.40;99.90
44215;DHT22;29884;47.450;19.124;2023-06-10T01:37:24;17.30;99.90
44215;DHT22;29884;47.450;19.124;2023-06-10T01:39:51;17.30;99.90
44215;DHT22;29884;47.450;19.124;2023-06-10T01:42:17;17.30;99.90
44215;DHT22;29884;47.450;19.124;2023-06-10T01:44:43;17.30;99.90
44215;DHT22;29884;47.450;19.124;2023-06-10T01:47:09;17.30;99.90
44215;DHT22;29884;47.450;19.124;2023-06-10T01:49:35;17.30;99.90
44215;DHT22;29884;47.450;19.124;2023-06-10T01:52:01;17.40;99.90
44215;DHT22;29884;47.450;19.124;2023-06-10T01:54:26;17.30;99.90
44215;DHT22;29884;47.450;19.124;2023-06-10T01:56:52;17.30;99.90
44215;DHT22;29884;47.450;19.124;2023-06-10T01:59:18;17.30;99.90
44215;DHT22;29884;47.450;19.124;2023-06-10T02:01:44;17.20;99.90
44215;DHT22;29884;47.450;19.124;2023-06-10T02:04:09;17.20;99.90
44215;DHT22;29884;47.450;19.124;2023-06-10T02:06:35;17.20;99.90
44215;DHT22;29884;47.450;19.124;2023-06-10T02:09:03;17.10;99.90
44215;DHT22;29884;47.450;19.124;2023-06-10T02:11:29;17.10;99.90
44215;DHT22;29884;47.450;19.124;2023-06-10T02:13:55;17.00;99.90
44215;DHT22;29884;47.450;19.124;2023-06-10T02:16:20;17.00;99.90
44215;DHT22;29884;47.450;19.124;2023-06-10T02:18:47;17.10;99.90
44215;DHT22;29884;47.450;19.124;2023-06-10T02:21:14;17.00;99.90
44215;DHT22;29884;47.450;19.124;2023-06-10T02:23:39;17.00;99.90
44215;DHT22;29884;47.450;19.124;2023-06-10T02:26:06;17.00;99.90
44215;DHT22;29884;47.450;19.124;2023-06-10T02:28:32;17.00;99.90
44215;DHT22;29884;47.450;19.124;2023-06-10T02:30:57;17.00;99.90
44215;DHT22;29884;47.450;19.124;2023-06-10T02:33:24;17.00;99.90
44215;DHT22;29884;47.450;19.124;2023-06-10T02:35:50;17.00;99.90
44215;DHT22;29884;47.450;19.124;2023-06-10T02:38:16;17.00;99.90
44215;DHT22;29884;47.450;19.124;2023-06-10T02:40:42;17.00;99.90
44215;DHT22;29884;47.450;19.124;2023-06-10T02:43:09;16.90;99.90
44215;DHT22;29884;47.450;19.124;2023-06-10T02:45:35;16.90;99.90
44215;DHT22;29884;47.450;19.124;2023-06-10T02:48:00;16.90;99.90
44215;DHT22;29884;47.450;19.124;2023-06-10T02:50:26;16.90;99.90
44215;DHT22;29884;47.450;19.124;2023-06-10T02:52:52;16.90;99.90
44215;DHT22;29884;47.450;19.124;2023-06-10T02:55:18;16.90;99.90
44215;DHT22;29884;47.450;19.124;2023-06-10T02:57:43;16.80;99.90
44215;DHT22;29884;47.450;19.124;2023-06-10T03:00:09;16.80;99.90
44215;DHT22;29884;47.450;19.124;2023-06-10T03:02:37;16.90;99.90
44215;DHT22;29884;47.450;19.124;2023-06-10T03:05:04;16.80;99.90
44215;DHT22;29884;47.450;19.124;2023-06-10T03:07:30;16.90;99.90
44215;DHT22;29884;47.450;19.124;2023-06-10T03:09:57;16.90;99.90
44215;DHT22;29884;47.450;19.124;2023-06-10T03:12:23;16.90;99.90
44215;DHT22;29884;47.450;19.124;2023-06-10T03:14:48;16.90;99.90
44215;DHT22;29884;47.450;19.124;2023-06-10T03:17:14;17.00;99.90
44215;DHT22;29884;47.450;19.124;2023-06-10T03:19:40;17.00;99.90
44215;DHT22;29884;47.450;19.124;2023-06-10T03:22:14;17.00;99.90
44215;DHT22;29884;47.450;19.124;2023-06-10T03:24:40;17.10;99.90
44215;DHT22;29884;47.450;19.124;2023-06-10T03:27:08;17.10;99.90
44215;DHT22;29884;47.450;19.124;2023-06-10T03:29:35;17.10;99.90
44215;DHT22;29884;47.450;19.124;2023-06-10T03:32:01;17.00;99.90
44215;DHT22;29884;47.450;19.124;2023-06-10T03:34:27;17.10;99.90
44215;DHT22;29884;47.450;19.124;2023-06-10T03:36:53;17.20;99.90
44215;DHT22;29884;47.450;19.124;2023-06-10T03:39:18;17.10;99.90
44215;DHT22;29884;47.450;19.124;2023-06-10T03:41:44;17.10;99.90
44215;DHT22;29884;47.450;19.124;2023-06-10T03:44:10;17.10;99.90
44215;DHT22;29884;47.450;19.124;2023-06-10T03:46:35;17.10;99.90
44215;DHT22;29884;47.450;19.124;2023-06-10T03:49:01;17.10;99.90
44215;DHT22;29884;47.450;19.124;2023-06-10T03:51:28;17.20;99.90
44215;DHT22;29884;47.450;19.124;2023-06-10T03:53:54;17.20;99.90
44215;DHT22;29884;47.450;19.124;2023-06-10T03:56:20;17.20;99.90
44215;DHT22;29884;47.450;19.124;2023-06-10T03:58:46;17.20;99.90
44215;DHT22;29884;47.450;19.124;2023-06-10T04:01:11;17.30;99.90
44215;DHT22;29884;47.450;19.124;2023-06-10T04:03:38;17.30;99.90
44215;DHT22;29884;47.450;19.124;2023-06-10T04:06:05;17.40;99.90
44215;DHT22;29884;47.450;19.124;2023-06-10T04:08:30;17.40;99.90
44215;DHT22;29884;47.450;19.124;2023-06-10T04:10:58;17.40;99.90
44215;DHT22;29884;47.450;19.124;2023-06-10T04:13:25;17.40;99.90
44215;DHT22;29884;47.450;19.124;2023-06-10T04:15:50;17.40;99.90
44215;DHT22;29884;47.450;19.124;2023-06-10T04:18:16;17.50;99.90
44215;DHT22;29884;47.450;19.124;2023-06-10T04:20:42;17.60;99.90
44215;DHT22;29884;47.450;19.124;2023-06-10T04:23:09;17.60;99.90
44215;DHT22;29884;47.450;19.124;2023-06-10T04:25:35;17.70;99.90
44215;DHT22;29884;47.450;19.124;2023-06-10T04:28:01;17.70;99.90
44215;DHT22;29884;47.450;19.124;2023-06-10T04:30:26;17.70;99.90
44215;DHT22;29884;47.450;19.124;2023-06-10T04:32:52;17.60;99.90
44215;DHT22;29884;47.450;19.124;2023-06-10T04:35:18;17.50;99.90
44215;DHT22;29884;47.450;19.124;2023-06-10T04:37:44;17.50;99.90
44215;DHT22;29884;47.450;19.124;2023-06-10T04:40:10;17.60;99.90
44215;DHT22;29884;47.450;19.124;2023-06-10T04:42:36;17.70;99.90
44215;DHT22;29884;47.450;19.124;2023-06-10T04:45:02;17.60;99.90
44215;DHT22;29884;47.450;19.124;2023-06-10T04:47:29;17.70;99.90
44215;DHT22;29884;47.450;19.124;2023-06-10T04:49:58;17.70;99.90
44215;DHT22;29884;47.450;19.124;2023-06-10T04:52:24;17.80;99.90
44215;DHT22;29884;47.450;19.124;2023-06-10T04:54:50;17.70;99.90
44215;DHT22;29884;47.450;19.124;2023-06-10T04:57:15;17.80;99.90
44215;DHT22;29884;47.450;19.124;2023-06-10T04:59:41;17.80;99.90
44215;DHT22;29884;47.450;19.124;2023-06-10T05:02:07;17.80;99.90
44215;DHT22;29884;47.450;19.124;2023-06-10T05:04:33;17.90;99.90
44215;DHT22;29884;47.450;19.124;2023-06-10T05:06:59;17.80;99.90
44215;DHT22;29884;47.450;19.124;2023-06-10T05:09:24;17.90;99.90
44215;DHT22;29884;47.450;19.124;2023-06-10T05:11:51;17.90;99.90
44215;DHT22;29884;47.450;19.124;2023-06-10T05:14:19;18.00;99.90
44215;DHT22;29884;47.450;19.124;2023-06-10T05:16:46;17.80;99.90
44215;DHT22;29884;47.450;19.124;2023-06-10T05:19:12;18.00;99.90
44215;DHT22;29884;47.450;19.124;2023-06-10T05:21:37;18.00;99.90
44215;DHT22;29884;47.450;19.124;2023-06-10T05:24:03;18.00;99.90
44215;DHT22;29884;47.450;19.124;2023-06-10T05:26:29;18.00;99.90
44215;DHT22;29884;47.450;19.124;2023-06-10T05:28:57;17.90;99.90
44215;DHT22;29884;47.450;19.124;2023-06-10T05:31:24;17.90;99.90
44215;DHT22;29884;47.450;19.124;2023-06-10T05:33:49;18.10;99.90
44215;DHT22;29884;47.450;19.124;2023-06-10T05:36:15;18.10;99.90
44215;DHT22;29884;47.450;19.124;2023-06-10T05:38:41;18.00;99.90
44215;DHT22;29884;47.450;19.124;2023-06-10T05:41:06;18.00;99.90
44215;DHT22;29884;47.450;19.124;2023-06-10T05:43:32;18.00;99.90
44215;DHT22;29884;47.450;19.124;2023-06-10T05:45:58;18.00;99.90
44215;DHT22;29884;47.450;19.124;2023-06-10T05:48:24;18.00;99.90
44215;DHT22;29884;47.450;19.124;2023-06-10T05:50:49;18.10;99.90
44215;DHT22;29884;47.450;19.124;2023-06-10T05:53:15;18.10;99.90
44215;DHT22;29884;47.450;19.124;2023-06-10T05:55:45;18.10;99.90
44215;DHT22;29884;47.450;19.124;2023-06-10T05:58:11;18.20;99.90
44215;DHT22;29884;47.450;19.124;2023-06-10T06:00:38;18.20;99.90
44215;DHT22;29884;47.450;19.124;2023-06-10T06:03:06;18.20;99.90
44215;DHT22;29884;47.450;19.124;2023-06-10T06:05:32;18.20;99.90
44215;DHT22;29884;47.450;19.124;2023-06-10T06:08:01;18.30;99.90
44215;DHT22;29884;47.450;19.124;2023-06-10T06:10:27;18.40;99.90
44215;DHT22;29884;47.450;19.124;2023-06-10T06:12:53;18.50;99.90
44215;DHT22;29884;47.450;19.124;2023-06-10T06:15:19;18.40;99.90
44215;DHT22;29884;47.450;19.124;2023-06-10T06:17:44;18.50;99.90
44215;DHT22;29884;47.450;19.124;2023-06-10T06:20:10;18.50;99.90
44215;DHT22;29884;47.450;19.124;2023-06-10T06:22:36;18.50;99.90
44215;DHT22;29884;47.450;19.124;2023-06-10T06:25:02;18.40;99.90
44215;DHT22;29884;47.450;19.124;2023-06-10T06:27:28;18.30;99.90
44215;DHT22;29884;47.450;19.124;2023-06-10T06:29:54;18.30;99.90
44215;DHT22;29884;47.450;19.124;2023-06-10T06:32:19;18.30;99.90
44215;DHT22;29884;47.450;19.124;2023-06-10T06:34:46;18.40;99.90
44215;DHT22;29884;47.450;19.124;2023-06-10T06:37:12;18.30;99.90
44215;DHT22;29884;47.450;19.124;2023-06-10T06:39:37;18.30;99.90
44215;DHT22;29884;47.450;19.124;2023-06-10T06:42:03;18.40;99.90
44215;DHT22;29884;47.450;19.124;2023-06-10T06:44:29;18.40;99.90
44215;DHT22;29884;47.450;19.124;2023-06-10T06:46:55;18.50;99.90
44215;DHT22;29884;47.450;19.124;2023-06-10T06:49:21;18.50;99.90
44215;DHT22;29884;47.450;19.124;2023-06-10T06:51:46;18.50;99.90
44215;DHT22;29884;47.450;19.124;2023-06-10T06:54:12;18.50;99.90
44215;DHT22;29884;47.450;19.124;2023-06-10T06:56:38;18.50;99.90
44215;DHT22;29884;47.450;19.124;2023-06-10T06:59:03;18.50;99.90
44215;DHT22;29884;47.450;19.124;2023-06-10T07:01:30;18.60;99.90
44215;DHT22;29884;47.450;19.124;2023-06-10T07:03:55;18.70;99.90
44215;DHT22;29884;47.450;19.124;2023-06-10T07:06:21;18.80;99.90
44215;DHT22;29884;47.450;19.124;2023-06-10T07:08:48;18.80;99.90
44215;DHT22;29884;47.450;19.124;2023-06-10T07:11:14;18.90;99.90
44215;DHT22;29884;47.450;19.124;2023-06-10T07:13:41;19.00;99.90
44215;DHT22;29884;47.450;19.124;2023-06-10T07:16:07;19.10;99.90
44215;DHT22;29884;47.450;19.124;2023-06-10T07:18:33;19.30;99.90
44215;DHT22;29884;47.450;19.124;2023-06-10T07:20:58;19.30;99.90
44215;DHT22;29884;47.450;19.124;2023-06-10T07:23:24;19.40;99.90
44215;DHT22;29884;47.450;19.124;2023-06-10T07:25:50;19.50;99.90
44215;DHT22;29884;47.450;19.124;2023-06-10T07:28:16;19.50;99.90
44215;DHT22;29884;47.450;19.124;2023-06-10T07:30:41;19.70;99.90
44215;DHT22;29884;47.450;19.124;2023-06-10T07:33:07;19.70;99.90
44215;DHT22;29884;47.450;19.124;2023-06-10T07:35:33;19.90;99.90
44215;DHT22;29884;47.450;19.124;2023-06-10T07:37:59;20.10;99.90
44215;DHT22;29884;47.450;19.124;2023-06-10T07:40:24;20.20;99.90
44215;DHT22;29884;47.450;19.124;2023-06-10T07:42:50;20.30;99.90
44215;DHT22;29884;47.450;19.124;2023-06-10T07:45:16;20.30;99.90
44215;DHT22;29884;47.450;19.124;2023-06-10T07:47:42;20.40;99.90
44215;DHT22;29884;47.450;19.124;2023-06-10T07:50:08;20.50;99.90
44215;DHT22;29884;47.450;19.124;2023-06-10T07:52:34;20.70;99.90
44215;DHT22;29884;47.450;19.124;2023-06-10T07:55:00;20.80;99.90
44215;DHT22;29884;47.450;19.124;2023-06-10T07:57:25;20.80;99.90
44215;DHT22;29884;47.450;19.124;2023-06-10T07:59:51;20.90;99.90
44215;DHT22;29884;47.450;19.124;2023-06-10T08:02:17;21.10;99.90
44215;DHT22;29884;47.450;19.124;2023-06-10T08:04:43;21.10;99.90
44215;DHT22;29884;47.450;19.124;2023-06-10T08:07:09;21.20;99.90
44215;DHT22;29884;47.450;19.124;2023-06-10T08:09:34;21.00;99.90
44215;DHT22;29884;47.450;19.124;2023-06-10T08:12:01;21.00;99.90
44215;DHT22;29884;47.450;19.124;2023-06-10T08:14:27;21.00;99.90
44215;DHT22;29884;47.450;19.124;2023-06-10T08:16:53;21.00;99.90
44215;DHT22;29884;47.450;19.124;2023-06-10T08:19:18;21.00;99.90
44215;DHT22;29884;47.450;19.124;2023-06-10T08:21:44;21.10;99.90
44215;DHT22;29884;47.450;19.124;2023-06-10T08:24:10;21.20;99.90
44215;DHT22;29884;47.450;19.124;2023-06-10T08:26:36;21.50;99.90
44215;DHT22;29884;47.450;19.124;2023-06-10T08:29:01;21.70;99.90
44215;DHT22;29884;47.450;19.124;2023-06-10T08:31:27;21.60;99.90
44215;DHT22;29884;47.450;19.124;2023-06-10T08:33:53;21.60;99.90
44215;DHT22;29884;47.450;19.124;2023-06-10T08:36:19;21.50;99.90
44215;DHT22;29884;47.450;19.124;2023-06-10T08:38:44;21.50;99.90
44215;DHT22;29884;47.450;19.124;2023-06-10T08:41:12;21.70;99.90
44215;DHT22;29884;47.450;19.124;2023-06-10T08:43:43;21.70;99.90
44215;DHT22;29884;47.450;19.124;2023-06-10T08:46:10;21.70;99.90
44215;DHT22;29884;47.450;19.124;2023-06-10T08:48:39;21.60;99.90
44215;DHT22;29884;47.450;19.124;2023-06-10T08:51:09;21.50;99.90
44215;DHT22;29884;47.450;19.124;2023-06-10T08:53:38;21.40;99.90
44215;DHT22;29884;47.450;19.124;2023-06-10T08:56:09;21.20;99.90
44215;DHT22;29884;47.450;19.124;2023-06-10T08:58:35;21.20;99.90
44215;DHT22;29884;47.450;19.124;2023-06-10T09:01:07;21.20;99.90
44215;DHT22;29884;47.450;19.124;2023-06-10T09:03:36;21.20;99.90
44215;DHT22;29884;47.450;19.124;2023-06-10T09:06:04;21.20;99.90
44215;DHT22;29884;47.450;19.124;2023-06-10T09:08:30;21.30;99.90
44215;DHT22;29884;47.450;19.124;2023-06-10T09:10:57;21.20;99.90
44215;DHT22;29884;47.450;19.124;2023-06-10T09:13:23;21.40;99.90
44215;DHT22;29884;47.450;19.124;2023-06-10T09:15:49;21.60;99.90
44215;DHT22;29884;47.450;19.124;2023-06-10T09:18:16;22.00;99.90
44215;DHT22;29884;47.450;19.124;2023-06-10T09:20:43;22.40;99.90
44215;DHT22;29884;47.450;19.124;2023-06-10T09:23:09;22.40;99.90
44215;DHT22;29884;47.450;19.124;2023-06-10T09:25:36;22.70;99.90
44215;DHT22;29884;47.450;19.124;2023-06-10T09:28:03;22.80;99.90
44215;DHT22;29884;47.450;19.124;2023-06-10T09:30:30;23.00;99.90
44215;DHT22;29884;47.450;19.124;2023-06-10T09:32:59;23.20;99.90
44215;DHT22;29884;47.450;19.124;2023-06-10T09:35:26;23.00;99.90
44215;DHT22;29884;47.450;19.124;2023-06-10T09:37:59;23.30;99.90
44215;DHT22;29884;47.450;19.124;2023-06-10T09:40:26;23.70;99.90
44215;DHT22;29884;47.450;19.124;2023-06-10T09:42:58;23.40;99.90
44215;DHT22;29884;47.450;19.124;2023-06-10T09:45:29;23.00;99.90
44215;DHT22;29884;47.450;19.124;2023-06-10T09:47:56;23.40;99.90
44215;DHT22;29884;47.450;19.124;2023-06-10T09:50:22;23.40;99.90
44215;DHT22;29884;47.450;19.124;2023-06-10T09:52:48;23.00;99.90
44215;DHT22;29884;47.450;19.124;2023-06-10T09:55:14;22.80;99.90
44215;DHT22;29884;47.450;19.124;2023-06-10T09:57:40;22.70;99.90
44215;DHT22;29884;47.450;19.124;2023-06-10T10:00:10;22.60;99.90
44215;DHT22;29884;47.450;19.124;2023-06-10T10:02:54;22.50;99.90
44215;DHT22;29884;47.450;19.124;2023-06-10T10:05:21;22.20;99.90
44215;DHT22;29884;47.450;19.124;2023-06-10T10:07:48;22.10;99.90
44215;DHT22;29884;47.450;19.124;2023-06-10T10:10:15;22.20;99.90
44215;DHT22;29884;47.450;19.124;2023-06-10T10:12:42;22.30;99.90
44215;DHT22;29884;47.450;19.124;2023-06-10T10:15:09;22.30;99.90
44215;DHT22;29884;47.450;19.124;2023-06-10T10:17:52;22.20;99.90
44215;DHT22;29884;47.450;19.124;2023-06-10T10:20:22;22.20;99.90
44215;DHT22;29884;47.450;19.124;2023-06-10T10:22:50;22.10;99.90
44215;DHT22;29884;47.450;19.124;2023-06-10T10:25:23;22.20;99.90
44215;DHT22;29884;47.450;19.124;2023-06-10T10:27:52;22.30;99.90
44215;DHT22;29884;47.450;19.124;2023-06-10T10:30:21;22.40;99.90
44215;DHT22;29884;47.450;19.124;2023-06-10T10:33:09;22.50;99.90
44215;DHT22;29884;47.450;19.124;2023-06-10T10:35:38;22.60;99.90
44215;DHT22;29884;47.450;19.124;2023-06-10T10:38:05;22.70;99.90
44215;DHT22;29884;47.450;19.124;2023-06-10T10:40:32;22.70;99.90
44215;DHT22;29884;47.450;19.124;2023-06-10T10:42:59;22.90;99.90
44215;DHT22;29884;47.450;19.124;2023-06-10T10:45:27;23.00;99.90
44215;DHT22;29884;47.450;19.124;2023-06-10T10:47:54;22.90;99.90
44215;DHT22;29884;47.450;19.124;2023-06-10T10:50:23;22.80;99.90
44215;DHT22;29884;47.450;19.124;2023-06-10T10:53:00;22.80;99.90
44215;DHT22;29884;47.450;19.124;2023-06-10T10:55:27;22.70;99.90
44215;DHT22;29884;47.450;19.124;2023-06-10T10:58:03;22.60;99.90
44215;DHT22;29884;47.450;19.124;2023-06-10T11:00:34;22.60;99.90
44215;DHT22;29884;47.450;19.124;2023-06-10T11:05:40;22.50;99.90
44215;DHT22;29884;47.450;19.124;2023-06-10T11:08:08;22.50;99.90
44215;DHT22;29884;47.450;19.124;2023-06-10T11:10:36;22.60;99.90
44215;DHT22;29884;47.450;19.124;2023-06-10T11:13:06;22.80;99.90
44215;DHT22;29884;47.450;19.124;2023-06-10T11:15:33;23.10;99.90
44215;DHT22;29884;47.450;19.124;2023-06-10T11:18:15;23.20;99.90
44215;DHT22;29884;47.450;19.124;2023-06-10T11:28:39;25.10;99.90
44215;DHT22;29884;47.450;19.124;2023-06-10T11:31:04;25.20;99.90
44215;DHT22;29884;47.450;19.124;2023-06-10T11:33:31;25.00;99.90
44215;DHT22;29884;47.450;19.124;2023-06-10T11:35:57;24.60;99.90
44215;DHT22;29884;47.450;19.124;2023-06-10T11:38:24;24.60;99.90
44215;DHT22;29884;47.450;19.124;2023-06-10T11:40:50;24.80;99.90
44215;DHT22;29884;47.450;19.124;2023-06-10T11:43:19;25.20;99.90
44215;DHT22;29884;47.450;19.124;2023-06-10T11:45:45;25.40;99.90
44215;DHT22;29884;47.450;19.124;2023-06-10T11:48:12;25.20;99.90
44215;DHT22;29884;47.450;19.124;2023-06-10T11:50:38;24.90;99.90
44215;DHT22;29884;47.450;19.124;2023-06-10T11:53:04;25.60;99.90
44215;DHT22;29884;47.450;19.124;2023-06-10T11:55:44;26.20;99.90
44215;DHT22;29884;47.450;19.124;2023-06-10T11:58:21;26.50;99.90
44215;DHT22;29884;47.450;19.124;2023-06-10T12:00:48;26.50;99.90
44215;DHT22;29884;47.450;19.124;2023-06-10T12:03:14;26.00;99.90
44215;DHT22;29884;47.450;19.124;2023-06-10T12:05:40;26.00;99.90
44215;DHT22;29884;47.450;19.124;2023-06-10T12:08:18;25.80;99.90
44215;DHT22;29884;47.450;19.124;2023-06-10T12:10:44;25.40;99.90
44215;DHT22;29884;47.450;19.124;2023-06-10T12:13:10;24.70;99.90
44215;DHT22;29884;47.450;19.124;2023-06-10T12:15:36;24.80;99.90
44215;DHT22;29884;47.450;19.124;2023-06-10T12:18:02;24.70;99.90
44215;DHT22;29884;47.450;19.124;2023-06-10T12:20:32;25.10;99.90
44215;DHT22;29884;47.450;19.124;2023-06-10T12:23:09;25.80;99.90
44215;DHT22;29884;47.450;19.124;2023-06-10T12:25:34;25.70;99.90
44215;DHT22;29884;47.450;19.124;2023-06-10T12:28:02;25.20;99.90
44215;DHT22;29884;47.450;19.124;2023-06-10T12:30:28;24.80;99.90
44215;DHT22;29884;47.450;19.124;2023-06-10T12:32:55;24.70;99.90
44215;DHT22;29884;47.450;19.124;2023-06-10T12:35:23;24.60;99.90
44215;DHT22;29884;47.450;19.124;2023-06-10T12:40:33;25.90;99.90
44215;DHT22;29884;47.450;19.124;2023-06-10T12:43:00;26.10;99.90
44215;DHT22;29884;47.450;19.124;2023-06-10T12:45:29;26.30;99.90
44215;DHT22;29884;47.450;19.124;2023-06-10T12:50:44;26.50;99.90
44215;DHT22;29884;47.450;19.124;2023-06-10T12:53:11;26.20;99.90
44215;DHT22;29884;47.450;19.124;2023-06-10T12:55:38;25.80;99.90
44215;DHT22;29884;47.450;19.124;2023-06-10T12:58:04;25.40;99.90
44215;DHT22;29884;47.450;19.124;2023-06-10T13:00:30;25.50;99.90
44215;DHT22;29884;47.450;19.124;2023-06-10T13:02:56;25.40;99.90
44215;DHT22;29884;47.450;19.124;2023-06-10T13:05:23;25.10;99.90
44215;DHT22;29884;47.450;19.124;2023-06-10T13:07:49;25.90;99.90
44215;DHT22;29884;47.450;19.124;2023-06-10T13:10:16;26.60;99.90
44215;DHT22;29884;47.450;19.124;2023-06-10T13:12:43;27.10;99.90
44215;DHT22;29884;47.450;19.124;2023-06-10T13:15:09;27.20;99.90
44215;DHT22;29884;47.450;19.124;2023-06-10T13:17:35;26.60;99.90
44215;DHT22;29884;47.450;19.124;2023-06-10T13:20:05;26.10;99.90
44215;DHT22;29884;47.450;19.124;2023-06-10T13:22:32;25.60;99.90
44215;DHT22;29884;47.450;19.124;2023-06-10T13:25:03;25.40;99.90
44215;DHT22;29884;47.450;19.124;2023-06-10T13:27:30;25.20;99.90
44215;DHT22;29884;47.450;19.124;2023-06-10T13:29:56;25.00;99.90
44215;DHT22;29884;47.450;19.124;2023-06-10T13:32:22;24.70;99.90
44215;DHT22;29884;47.450;19.124;2023-06-10T13:34:47;24.90;99.90
44215;DHT22;29884;47.450;19.124;2023-06-10T13:37:14;24.90;99.90
44215;DHT22;29884;47.450;19.124;2023-06-10T13:39:41;25.10;99.90
44215;DHT22;29884;47.450;19.124;2023-06-10T13:42:07;25.60;99.90
44215;DHT22;29884;47.450;19.124;2023-06-10T13:44:33;25.50;99.90
44215;DHT22;29884;47.450;19.124;2023-06-10T13:47:04;25.10;99.90
44215;DHT22;29884;47.450;19.124;2023-06-10T13:49:30;25.30;99.90
44215;DHT22;29884;47.450;19.124;2023-06-10T13:51:57;25.20;99.90
44215;DHT22;29884;47.450;19.124;2023-06-10T13:54:23;24.10;99.90
44215;DHT22;29884;47.450;19.124;2023-06-10T13:56:49;23.00;99.90
44215;DHT22;29884;47.450;19.124;2023-06-10T13:59:14;22.50;99.90
44215;DHT22;29884;47.450;19.124;2023-06-10T14:01:41;22.20;99.90
44215;DHT22;29884;47.450;19.124;2023-06-10T14:04:08;22.00;99.90
44215;DHT22;29884;47.450;19.124;2023-06-10T14:06:34;22.00;99.90
44215;DHT22;29884;47.450;19.124;2023-06-10T14:09:00;21.80;99.90
44215;DHT22;29884;47.450;19.124;2023-06-10T14:11:26;21.70;99.90
44215;DHT22;29884;47.450;19.124;2023-06-10T14:13:51;21.70;99.90
44215;DHT22;29884;47.450;19.124;2023-06-10T14:16:17;21.60;99.90
44215;DHT22;29884;47.450;19.124;2023-06-10T14:18:43;21.50;99.90
44215;DHT22;29884;47.450;19.124;2023-06-10T14:21:09;21.40;99.90
44215;DHT22;29884;47.450;19.124;2023-06-10T14:23:35;21.50;99.90
44215;DHT22;29884;47.450;19.124;2023-06-10T14:26:00;21.50;99.90
44215;DHT22;29884;47.450;19.124;2023-06-10T14:31:16;21.70;99.90
44215;DHT22;29884;47.450;19.124;2023-06-10T14:33:42;21.70;99.90
44215;DHT22;29884;47.450;19.124;2023-06-10T14:36:09;21.80;99.90
44215;DHT22;29884;47.450;19.124;2023-06-10T14:38:35;21.80;99.90
44215;DHT22;29884;47.450;19.124;2023-06-10T14:41:01;21.80;99.90
44215;DHT22;29884;47.450;19.124;2023-06-10T14:43:27;21.70;99.90
44215;DHT22;29884;47.450;19.124;2023-06-10T14:45:53;21.70;99.90
44215;DHT22;29884;47.450;19.124;2023-06-10T14:48:21;21.80;99.90
44215;DHT22;29884;47.450;19.124;2023-06-10T14:50:47;21.90;99.90
44215;DHT22;29884;47.450;19.124;2023-06-10T14:53:16;22.00;99.90
44215;DHT22;29884;47.450;19.124;2023-06-10T14:55:42;22.10;99.90
44215;DHT22;29884;47.450;19.124;2023-06-10T14:58:08;22.20;99.90
44215;DHT22;29884;47.450;19.124;2023-06-10T15:00:34;22.50;99.90
44215;DHT22;29884;47.450;19.124;2023-06-10T15:03:00;22.70;99.90
44215;DHT22;29884;47.450;19.124;2023-06-10T15:05:25;22.70;99.90
44215;DHT22;29884;47.450;19.124;2023-06-10T15:07:51;22.70;99.90
44215;DHT22;29884;47.450;19.124;2023-06-10T15:10:17;22.60;99.90
44215;DHT22;29884;47.450;19.124;2023-06-10T15:12:43;22.90;99.90
44215;DHT22;29884;47.450;19.124;2023-06-10T15:15:09;23.20;99.90
44215;DHT22;29884;47.450;19.124;2023-06-10T15:17:35;23.40;99.90
44215;DHT22;29884;47.450;19.124;2023-06-10T15:20:02;23.70;99.90
44215;DHT22;29884;47.450;19.124;2023-06-10T15:22:28;23.40;99.90
44215;DHT22;29884;47.450;19.124;2023-06-10T15:24:54;22.90;99.90
44215;DHT22;29884;47.450;19.124;2023-06-10T15:27:20;22.40;99.90
44215;DHT22;29884;47.450;19.124;2023-06-10T15:29:45;22.10;99.90
44215;DHT22;29884;47.450;19.124;2023-06-10T15:32:11;21.80;99.90
44215;DHT22;29884;47.450;19.124;2023-06-10T15:34:37;21.70;99.90
44215;DHT22;29884;47.450;19.124;2023-06-10T15:37:03;21.60;99.90